createdAt,value
2018-07-30T00:00:38.437Z,94.50
2018-07-30T00:03:08.038Z,94.60
2018-07-30T00:05:37.180Z,94.60
2018-07-30T00:08:07.479Z,94.80
2018-07-30T00:10:36.815Z,94.80
2018-07-30T00:13:05.999Z,94.80
2018-07-30T00:15:35.365Z,95.30
2018-07-30T00:18:04.705Z,95.10
2018-07-30T00:23:02.561Z,95.20
2018-07-30T00:25:31.960Z,95.30
2018-07-30T00:28:01.331Z,95.20
2018-07-30T00:30:30.863Z,95.30
2018-07-30T00:33:00.344Z,95.40
2018-07-30T00:35:29.829Z,95.50
2018-07-30T00:37:59.382Z,95.70
2018-07-30T00:40:28.806Z,95.70
2018-07-30T00:42:58.382Z,95.70
2018-07-30T00:45:27.470Z,95.80
2018-07-30T00:47:57.186Z,95.90
2018-07-30T00:50:26.301Z,96.00
2018-07-30T00:52:55.402Z,96.00
2018-07-30T00:57:53.297Z,96.40
2018-07-30T01:00:22.922Z,96.40
2018-07-30T01:02:52.430Z,96.50
2018-07-30T01:05:21.968Z,96.60
2018-07-30T01:07:51.224Z,96.60
2018-07-30T01:10:20.706Z,96.80
2018-07-30T01:12:50.199Z,96.70
2018-07-30T01:15:20.253Z,96.80
2018-07-30T01:17:49.651Z,96.80
2018-07-30T01:22:48.128Z,96.80
2018-07-30T01:27:46.417Z,96.80
2018-07-30T01:30:15.544Z,96.90
2018-07-30T01:32:44.608Z,96.90
2018-07-30T01:37:42.456Z,96.90
2018-07-30T01:40:11.793Z,97.40
2018-07-30T01:42:41.314Z,97.20
2018-07-30T01:45:10.862Z,97.30
2018-07-30T01:47:40.305Z,97.20
2018-07-30T01:50:10.469Z,97.30
2018-07-30T01:52:40.001Z,97.40
2018-07-30T01:55:09.487Z,97.50
2018-07-30T01:57:38.567Z,97.80
2018-07-30T02:00:08.264Z,97.80
2018-07-30T02:05:11.477Z,98.40
2018-07-30T02:07:41.906Z,98.30
2018-07-30T02:10:12.120Z,98.40
2018-07-30T02:12:41.880Z,98.50
2018-07-30T02:15:15.125Z,98.60
2018-07-30T02:17:44.411Z,98.90
2018-07-30T02:20:13.599Z,98.90
2018-07-30T02:22:42.802Z,98.90
2018-07-30T02:25:12.717Z,99.10
2018-07-30T02:27:42.047Z,99.20
2018-07-30T02:30:11.847Z,99.30
2018-07-30T02:32:40.920Z,99.30
2018-07-30T02:35:10.575Z,99.50
2018-07-30T02:37:40.377Z,99.60
2018-07-30T02:40:09.922Z,99.90
2018-07-30T02:42:39.219Z,99.80
2018-07-30T02:45:08.833Z,99.90
2018-07-30T02:47:38.023Z,99.90
2018-07-30T02:50:08.483Z,99.90
2018-07-30T02:52:38.074Z,99.90
2018-07-30T02:55:07.816Z,99.90
2018-07-30T02:57:37.991Z,99.90
2018-07-30T03:02:37.208Z,99.90
2018-07-30T03:05:06.407Z,99.90
2018-07-30T03:07:36.011Z,99.90
2018-07-30T03:10:05.857Z,99.90
2018-07-30T03:12:35.985Z,99.90
2018-07-30T03:15:05.767Z,99.90
2018-07-30T03:17:34.888Z,99.90
2018-07-30T03:20:04.148Z,99.90
2018-07-30T03:22:33.517Z,99.90
2018-07-30T03:25:02.576Z,99.90
2018-07-30T03:27:32.024Z,99.90
2018-07-30T03:30:02.314Z,99.90
2018-07-30T03:32:31.888Z,99.90
2018-07-30T03:35:01.469Z,99.90
2018-07-30T03:37:31.030Z,99.90
2018-07-30T03:40:01.555Z,99.90
2018-07-30T03:45:00.546Z,99.90
2018-07-30T03:47:30.277Z,99.90
2018-07-30T03:49:59.897Z,99.90
2018-07-30T03:52:29.514Z,99.90
2018-07-30T03:54:59.647Z,99.90
2018-07-30T03:57:29.948Z,99.90
2018-07-30T03:59:59.427Z,99.90
2018-07-30T04:02:29.329Z,99.90
2018-07-30T04:05:01.675Z,99.90
2018-07-30T04:07:31.922Z,99.90
2018-07-30T04:10:02.352Z,99.90
2018-07-30T04:12:34.724Z,99.90
2018-07-30T04:15:04.320Z,99.90
2018-07-30T04:17:37.560Z,99.90
2018-07-30T04:20:09.130Z,99.90
2018-07-30T04:27:38.328Z,99.90
2018-07-30T04:30:07.823Z,99.90
2018-07-30T04:32:37.727Z,99.90
2018-07-30T04:35:06.957Z,99.90
2018-07-30T04:37:36.122Z,99.90
2018-07-30T04:40:05.290Z,99.90
2018-07-30T04:42:34.451Z,99.90
2018-07-30T04:45:03.772Z,99.90
2018-07-30T04:47:32.916Z,99.90
2018-07-30T04:50:02.415Z,99.90
2018-07-30T04:52:31.687Z,99.90
2018-07-30T04:55:01.136Z,99.90
2018-07-30T04:57:30.510Z,99.90
2018-07-30T05:00:00.020Z,99.90
2018-07-30T05:02:29.240Z,99.90
2018-07-30T05:04:58.891Z,99.90
2018-07-30T05:07:28.173Z,99.90
2018-07-30T05:09:57.313Z,99.90
2018-07-30T05:12:27.171Z,99.90
2018-07-30T05:14:56.360Z,99.90
2018-07-30T05:17:25.540Z,99.90
2018-07-30T05:22:25.314Z,99.90
2018-07-30T05:24:55.128Z,99.90
2018-07-30T05:27:24.652Z,99.90
2018-07-30T05:29:53.950Z,99.90
2018-07-30T05:32:23.972Z,99.90
2018-07-30T05:34:54.071Z,99.90
2018-07-30T05:37:23.234Z,99.90
2018-07-30T05:39:52.390Z,99.90
2018-07-30T05:47:20.160Z,99.90
2018-07-30T05:49:49.402Z,99.90
2018-07-30T05:52:18.672Z,99.90
2018-07-30T05:54:48.472Z,99.90
2018-07-30T05:57:17.815Z,99.90
2018-07-30T05:59:47.246Z,99.90
2018-07-30T06:02:16.434Z,99.90
2018-07-30T06:04:46.278Z,99.90
2018-07-30T06:07:15.854Z,99.90
2018-07-30T06:09:45.586Z,99.90
2018-07-30T06:12:14.617Z,99.90
2018-07-30T06:14:43.901Z,99.90
2018-07-30T06:19:41.934Z,99.90
2018-07-30T06:22:11.112Z,99.90
2018-07-30T06:27:09.315Z,99.90
2018-07-30T06:29:38.978Z,99.90
2018-07-30T06:32:08.353Z,99.90
2018-07-30T06:34:37.554Z,99.90
2018-07-30T06:37:06.882Z,99.90
2018-07-30T06:39:38.411Z,99.90
2018-07-30T06:42:07.513Z,99.90
2018-07-30T06:44:36.784Z,99.90
2018-07-30T06:47:06.334Z,99.90
2018-07-30T06:49:35.472Z,99.90
2018-07-30T06:52:04.794Z,99.90
2018-07-30T06:54:33.996Z,99.90
2018-07-30T06:57:03.369Z,99.90
2018-07-30T06:59:32.494Z,99.90
2018-07-30T07:02:01.788Z,99.90
2018-07-30T07:04:30.871Z,99.90
2018-07-30T07:07:00.169Z,99.90
2018-07-30T07:11:58.309Z,99.90
2018-07-30T07:14:27.732Z,99.90
2018-07-30T07:16:57.212Z,99.80
2018-07-30T07:19:27.814Z,99.70
2018-07-30T07:21:57.152Z,99.40
2018-07-30T07:24:26.745Z,99.40
2018-07-30T07:26:56.606Z,99.40
2018-07-30T07:29:26.285Z,99.60
2018-07-30T07:31:55.611Z,99.00
2018-07-30T07:34:24.799Z,99.00
2018-07-30T07:36:55.168Z,98.90
2018-07-30T07:39:24.467Z,99.00
2018-07-30T07:41:54.365Z,98.90
2018-07-30T07:44:23.744Z,98.60
2018-07-30T07:46:52.943Z,98.30
2018-07-30T07:49:22.254Z,98.30
2018-07-30T07:51:51.449Z,98.10
2018-07-30T07:54:20.883Z,97.60
2018-07-30T07:56:50.533Z,97.30
2018-07-30T07:59:19.857Z,97.20
2018-07-30T08:01:49.047Z,97.10
2018-07-30T08:04:18.301Z,96.90
2018-07-30T08:06:47.564Z,97.00
2018-07-30T08:09:16.707Z,96.40
2018-07-30T08:11:45.954Z,96.10
2018-07-30T08:14:15.556Z,95.70
2018-07-30T08:16:44.893Z,95.70
2018-07-30T08:19:17.233Z,95.50
2018-07-30T08:21:46.544Z,95.40
2018-07-30T08:24:15.965Z,95.20
2018-07-30T08:26:45.601Z,94.90
2018-07-30T08:29:14.900Z,94.60
2018-07-30T08:31:44.129Z,94.50
2018-07-30T08:34:13.588Z,94.20
2018-07-30T08:36:42.977Z,94.10
2018-07-30T08:39:12.585Z,94.00
2018-07-30T08:41:41.884Z,94.20
2018-07-30T08:44:11.064Z,93.80
2018-07-30T08:49:09.060Z,93.10
2018-07-30T08:51:38.309Z,92.80
2018-07-30T08:54:07.528Z,92.70
2018-07-30T08:56:36.712Z,92.40
2018-07-30T08:59:06.046Z,92.30
2018-07-30T09:04:04.152Z,92.60
2018-07-30T09:06:33.528Z,92.50
2018-07-30T09:14:01.170Z,91.90
2018-07-30T09:16:33.457Z,91.90
2018-07-30T09:19:03.239Z,91.80
2018-07-30T09:21:33.208Z,91.40
2018-07-30T09:24:02.320Z,91.40
2018-07-30T09:26:31.895Z,90.80
2018-07-30T09:29:01.179Z,90.70
2018-07-30T09:31:30.728Z,90.40
2018-07-30T09:33:59.878Z,90.30
2018-07-30T09:36:29.118Z,89.50
2018-07-30T09:38:58.950Z,89.10
2018-07-30T09:41:28.105Z,87.80
2018-07-30T09:43:57.435Z,87.10
2018-07-30T09:46:26.664Z,86.10
2018-07-30T09:48:55.885Z,86.40
2018-07-30T09:51:25.119Z,85.70
2018-07-30T09:53:54.231Z,85.80
2018-07-30T09:56:23.481Z,85.60
2018-07-30T09:58:53.415Z,84.10
2018-07-30T10:01:28.126Z,83.60
2018-07-30T10:03:58.279Z,82.30
2018-07-30T10:06:27.798Z,81.50
2018-07-30T10:11:26.132Z,80.10
2018-07-30T10:13:55.280Z,80.00
2018-07-30T10:16:25.111Z,79.90
2018-07-30T10:18:54.954Z,80.70
2018-07-30T10:21:24.186Z,80.50
2018-07-30T10:23:53.394Z,79.70
2018-07-30T10:26:22.992Z,78.90
2018-07-30T10:28:52.392Z,76.70
2018-07-30T10:31:22.740Z,76.50
2018-07-30T10:33:52.063Z,76.90
2018-07-30T10:36:21.307Z,77.30
2018-07-30T10:38:50.395Z,75.10
2018-07-30T10:41:20.211Z,74.60
2018-07-30T10:43:50.223Z,74.90
2018-07-30T10:46:19.337Z,75.10
2018-07-30T10:48:48.575Z,73.70
2018-07-30T10:51:17.888Z,74.10
2018-07-30T10:56:15.669Z,73.70
2018-07-30T10:58:44.963Z,73.40
2018-07-30T11:01:14.271Z,73.30
2018-07-30T11:03:43.449Z,72.70
2018-07-30T11:06:12.638Z,73.60
2018-07-30T11:08:42.101Z,72.10
2018-07-30T11:11:11.343Z,72.80
2018-07-30T11:13:40.503Z,73.40
2018-07-30T11:16:09.734Z,72.20
2018-07-30T11:18:38.949Z,71.90
2018-07-30T11:21:08.412Z,72.80
2018-07-30T11:23:39.978Z,72.00
2018-07-30T11:26:09.055Z,71.10
2018-07-30T11:28:38.235Z,70.00
2018-07-30T11:31:07.413Z,70.20
2018-07-30T11:33:36.647Z,69.40
2018-07-30T11:38:34.768Z,68.90
2018-07-30T11:43:33.010Z,69.30
2018-07-30T11:46:02.239Z,70.00
2018-07-30T11:48:31.475Z,70.90
2018-07-30T11:51:01.092Z,71.30
2018-07-30T11:53:30.467Z,71.40
2018-07-30T11:56:00.455Z,71.40
2018-07-30T11:58:30.025Z,71.20
2018-07-30T12:00:59.390Z,72.10
2018-07-30T12:03:28.693Z,71.00
2018-07-30T12:05:58.100Z,70.00
2018-07-30T12:08:29.163Z,70.00
2018-07-30T12:10:58.749Z,70.00
2018-07-30T12:13:27.943Z,69.20
2018-07-30T12:15:57.312Z,69.20
2018-07-30T12:18:27.347Z,68.80
2018-07-30T12:20:57.012Z,68.90
2018-07-30T12:23:26.561Z,68.80
2018-07-30T12:25:55.842Z,69.20
2018-07-30T12:28:32.174Z,70.50
2018-07-30T12:31:01.489Z,69.90
2018-07-30T12:33:30.654Z,69.20
2018-07-30T12:36:00.069Z,68.90
2018-07-30T12:38:29.529Z,68.80
2018-07-30T12:41:01.112Z,64.40
2018-07-30T12:43:30.274Z,61.90
2018-07-30T12:46:00.273Z,63.00
2018-07-30T12:48:32.510Z,62.40
2018-07-30T12:51:02.425Z,64.20
2018-07-30T12:53:31.703Z,64.80
2018-07-30T12:56:01.132Z,64.30
2018-07-30T12:58:31.386Z,62.20
2018-07-30T13:01:00.771Z,61.50
2018-07-30T13:03:30.121Z,61.80
2018-07-30T13:05:59.278Z,62.10
2018-07-30T13:08:28.414Z,63.00
2018-07-30T13:10:57.667Z,62.60
2018-07-30T13:13:26.941Z,63.50
2018-07-30T13:15:56.215Z,62.50
2018-07-30T13:18:25.930Z,61.30
2018-07-30T13:20:55.348Z,61.10
2018-07-30T13:23:24.644Z,61.40
2018-07-30T13:25:53.891Z,59.70
2018-07-30T13:28:23.006Z,57.80
2018-07-30T13:30:52.175Z,58.20
2018-07-30T13:33:21.352Z,59.60
2018-07-30T13:35:50.536Z,60.20
2018-07-30T13:40:48.803Z,59.10
2018-07-30T13:43:19.277Z,58.20
2018-07-30T13:45:48.603Z,58.10
2018-07-30T13:48:17.839Z,58.10
2018-07-30T13:50:47.380Z,59.20
2018-07-30T13:53:16.529Z,59.60
2018-07-30T13:55:45.678Z,59.90
2018-07-30T14:00:43.628Z,59.50
2018-07-30T14:03:12.870Z,60.00
2018-07-30T14:05:42.115Z,60.10
2018-07-30T14:08:11.691Z,60.60
2018-07-30T14:10:40.807Z,60.00
2018-07-30T14:13:10.034Z,60.40
2018-07-30T14:15:39.160Z,60.90
2018-07-30T14:18:08.436Z,60.80
2018-07-30T14:20:37.649Z,60.60
2018-07-30T14:23:07.755Z,61.20
2018-07-30T14:28:06.149Z,60.50
2018-07-30T14:30:35.715Z,61.00
2018-07-30T14:33:05.128Z,61.20
2018-07-30T14:35:34.708Z,61.00
2018-07-30T14:38:04.292Z,61.00
2018-07-30T14:40:34.148Z,60.70
2018-07-30T14:43:03.237Z,60.40
2018-07-30T14:45:32.537Z,60.30
2018-07-30T14:48:01.770Z,60.90
2018-07-30T14:50:30.859Z,61.70
2018-07-30T14:53:00.207Z,62.70
2018-07-30T14:55:29.454Z,62.80
2018-07-30T14:57:58.678Z,63.10
2018-07-30T15:00:27.796Z,63.70
2018-07-30T15:02:57.496Z,63.40
2018-07-30T15:05:26.854Z,63.50
2018-07-30T15:07:56.156Z,62.30
2018-07-30T15:10:25.274Z,62.80
2018-07-30T15:12:54.607Z,63.70
2018-07-30T15:15:23.689Z,63.80
2018-07-30T15:17:52.805Z,62.10
2018-07-30T15:20:21.962Z,62.10
2018-07-30T15:22:51.136Z,62.90
2018-07-30T15:25:20.369Z,64.50
2018-07-30T15:27:49.782Z,65.20
2018-07-30T15:30:18.891Z,65.50
2018-07-30T15:32:48.039Z,63.70
2018-07-30T15:35:17.294Z,62.90
2018-07-30T15:37:46.695Z,63.40
2018-07-30T15:40:15.856Z,63.30
2018-07-30T15:42:45.026Z,61.70
2018-07-30T15:45:14.374Z,61.30
2018-07-30T15:47:50.142Z,61.10
2018-07-30T15:50:19.373Z,61.60
2018-07-30T15:52:49.353Z,61.80
2018-07-30T15:55:18.450Z,62.40
2018-07-30T15:57:47.754Z,62.20
2018-07-30T16:02:45.609Z,63.80
2018-07-30T16:05:17.469Z,65.40
2018-07-30T16:07:48.026Z,66.30
2018-07-30T16:10:17.981Z,65.70
2018-07-30T16:12:47.539Z,66.50
2018-07-30T16:17:45.823Z,66.20
2018-07-30T16:22:43.978Z,66.00
2018-07-30T16:25:13.481Z,65.60
2018-07-30T16:27:42.739Z,64.90
2018-07-30T16:30:12.111Z,62.50
2018-07-30T16:32:41.350Z,61.10
2018-07-30T16:35:10.636Z,59.80
2018-07-30T16:37:39.798Z,59.40
2018-07-30T16:40:09.043Z,59.30
2018-07-30T16:42:39.024Z,59.20
2018-07-30T16:47:38.020Z,61.50
2018-07-30T16:50:08.441Z,63.00
2018-07-30T16:52:38.237Z,63.40
2018-07-30T16:55:08.194Z,64.20
2018-07-30T16:57:37.608Z,63.80
2018-07-30T17:00:09.564Z,64.20
2018-07-30T17:02:38.840Z,64.80
2018-07-30T17:05:08.416Z,64.70
2018-07-30T17:07:38.099Z,63.50
2018-07-30T17:10:07.239Z,61.60
2018-07-30T17:12:37.159Z,60.00
2018-07-30T17:15:08.021Z,59.20
2018-07-30T17:17:37.126Z,58.00
2018-07-30T17:20:10.055Z,57.90
2018-07-30T17:22:39.506Z,57.90
2018-07-30T17:27:37.519Z,59.50
2018-07-30T17:30:08.066Z,60.00
2018-07-30T17:32:37.323Z,59.80
2018-07-30T17:35:07.120Z,59.40
2018-07-30T17:37:36.920Z,59.80
2018-07-30T17:40:07.497Z,59.50
2018-07-30T17:42:37.022Z,59.70
2018-07-30T17:45:08.587Z,59.40
2018-07-30T17:47:37.763Z,58.80
2018-07-30T17:50:07.718Z,59.20
2018-07-30T17:52:36.857Z,59.60
2018-07-30T17:55:06.709Z,60.80
2018-07-30T17:57:41.258Z,62.50
2018-07-30T18:00:11.215Z,64.10
2018-07-30T18:02:40.396Z,65.40
2018-07-30T18:05:09.691Z,65.70
2018-07-30T18:07:38.934Z,66.70
2018-07-30T18:10:08.305Z,68.00
2018-07-30T18:12:37.810Z,68.60
2018-07-30T18:15:07.893Z,70.20
2018-07-30T18:17:37.110Z,70.50
2018-07-30T18:20:06.528Z,71.70
2018-07-30T18:22:35.804Z,72.80
2018-07-30T18:25:05.507Z,73.60
2018-07-30T18:27:34.792Z,74.30
2018-07-30T18:30:04.882Z,74.80
2018-07-30T18:32:34.078Z,75.10
2018-07-30T18:35:03.370Z,75.40
2018-07-30T18:37:32.516Z,76.40
2018-07-30T18:40:01.920Z,79.50
2018-07-30T18:42:31.211Z,83.00
2018-07-30T18:45:00.478Z,86.10
2018-07-30T18:49:59.039Z,88.70
2018-07-30T18:52:29.713Z,90.20
2018-07-30T18:54:58.836Z,90.90
2018-07-30T18:57:28.341Z,91.50
2018-07-30T18:59:57.564Z,92.50
2018-07-30T19:02:26.735Z,93.20
2018-07-30T19:04:55.951Z,93.90
2018-07-30T19:07:25.404Z,94.40
2018-07-30T19:09:55.074Z,94.60
2018-07-30T19:12:24.367Z,95.10
2018-07-30T19:14:53.777Z,95.30
2018-07-30T19:17:22.981Z,95.40
2018-07-30T19:22:21.116Z,96.00
2018-07-30T19:24:50.478Z,96.30
2018-07-30T19:27:20.132Z,96.60
2018-07-30T19:29:49.231Z,97.00
2018-07-30T19:32:18.456Z,97.30
2018-07-30T19:34:47.649Z,97.70
2018-07-30T19:39:46.089Z,98.40
2018-07-30T19:42:15.253Z,98.80
2018-07-30T19:44:44.538Z,99.10
2018-07-30T19:49:42.481Z,99.90
2018-07-30T19:52:11.658Z,99.90
2018-07-30T19:54:41.549Z,99.90
2018-07-30T19:57:10.651Z,99.90
2018-07-30T19:59:39.796Z,99.90
2018-07-30T20:02:09.725Z,99.90
2018-07-30T20:04:38.832Z,99.90
2018-07-30T20:07:07.942Z,99.90
2018-07-30T20:09:37.116Z,99.90
2018-07-30T20:12:06.385Z,99.90
2018-07-30T20:14:35.605Z,99.90
2018-07-30T20:17:04.923Z,99.90
2018-07-30T20:19:34.000Z,99.90
2018-07-30T20:22:03.396Z,99.90
2018-07-30T20:24:32.656Z,99.90
2018-07-30T20:27:01.952Z,99.90
2018-07-30T20:29:31.147Z,99.90
2018-07-30T20:32:01.267Z,99.90
2018-07-30T20:34:30.840Z,99.90
2018-07-30T20:37:00.271Z,99.90
2018-07-30T20:41:58.636Z,99.90
2018-07-30T20:44:27.988Z,99.90
2018-07-30T20:47:04.177Z,99.90
2018-07-30T20:49:50.301Z,99.90
2018-07-30T20:52:19.601Z,99.90
2018-07-30T20:54:48.781Z,99.90
2018-07-30T20:59:47.251Z,99.90
2018-07-30T21:02:16.464Z,99.90
2018-07-30T21:04:45.672Z,99.90
2018-07-30T21:07:15.571Z,99.90
2018-07-30T21:09:44.670Z,99.90
2018-07-30T21:12:13.957Z,99.90
2018-07-30T21:14:43.378Z,99.90
2018-07-30T21:17:12.534Z,99.90
2018-07-30T21:19:41.767Z,99.90
2018-07-30T21:22:11.396Z,99.90
2018-07-30T21:24:41.117Z,99.90
2018-07-30T21:27:11.007Z,99.90
2018-07-30T21:29:40.172Z,99.90
2018-07-30T21:32:09.384Z,99.90
2018-07-30T21:34:38.635Z,99.90
2018-07-30T21:37:07.859Z,99.90
2018-07-30T21:39:37.114Z,99.90
2018-07-30T21:42:06.430Z,99.90
2018-07-30T21:44:35.554Z,99.90
2018-07-30T21:47:05.045Z,99.90
2018-07-30T21:49:34.375Z,99.90
2018-07-30T21:52:03.616Z,99.90
2018-07-30T21:54:33.074Z,99.90
2018-07-30T21:57:02.185Z,99.90
2018-07-30T21:59:31.279Z,99.90
2018-07-30T22:02:00.498Z,99.90
2018-07-30T22:04:29.769Z,99.90
2018-07-30T22:06:59.046Z,99.90
2018-07-30T22:09:28.274Z,99.90
2018-07-30T22:11:57.493Z,99.90
2018-07-30T22:14:26.843Z,99.90
2018-07-30T22:16:55.931Z,99.90
2018-07-30T22:19:25.262Z,99.90
2018-07-30T22:21:54.487Z,99.90
2018-07-30T22:24:23.701Z,99.90
2018-07-30T22:26:53.518Z,99.90
2018-07-30T22:29:22.798Z,99.90
2018-07-30T22:31:51.938Z,99.90
2018-07-30T22:34:21.067Z,99.90
2018-07-30T22:36:50.229Z,99.90
2018-07-30T22:39:19.493Z,99.90
2018-07-30T22:41:48.770Z,99.90
2018-07-30T22:44:17.956Z,99.90
2018-07-30T22:46:47.146Z,99.90
2018-07-30T22:49:16.228Z,99.90
2018-07-30T22:51:45.468Z,99.90
2018-07-30T22:54:14.798Z,99.90
2018-07-30T22:56:43.938Z,99.90
2018-07-30T22:59:13.765Z,99.90
2018-07-30T23:01:42.864Z,99.90
2018-07-30T23:06:41.276Z,99.90
2018-07-30T23:09:10.360Z,99.90
2018-07-30T23:11:39.568Z,99.90
2018-07-30T23:16:37.848Z,99.90
2018-07-30T23:19:07.258Z,99.90
2018-07-30T23:21:36.806Z,99.90
2018-07-30T23:24:06.048Z,99.90
2018-07-30T23:26:36.567Z,99.90
2018-07-30T23:29:05.761Z,99.90
2018-07-30T23:31:34.889Z,99.90
2018-07-30T23:34:04.224Z,99.90
2018-07-30T23:36:34.001Z,99.90
2018-07-30T23:39:03.701Z,99.90
2018-07-30T23:41:32.900Z,99.90
2018-07-30T23:44:02.395Z,99.90
2018-07-30T23:46:32.132Z,99.90
2018-07-30T23:49:01.402Z,99.90
2018-07-30T23:51:30.903Z,99.90
2018-07-30T23:54:00.073Z,99.90
2018-07-30T23:56:29.714Z,99.90
2018-07-30T23:58:59.636Z,99.90
